createdAt,value
2017-12-04T00:01:43.875Z,16.70
2017-12-04T00:04:11.350Z,15.77
2017-12-04T00:06:38.826Z,16.13
2017-12-04T00:09:06.309Z,15.17
2017-12-04T00:11:33.781Z,16.63
2017-12-04T00:14:02.054Z,16.13
2017-12-04T00:16:29.614Z,15.77
2017-12-04T00:18:57.635Z,17.07
2017-12-04T00:21:25.114Z,16.43
2017-12-04T00:23:53.211Z,16.10
2017-12-04T00:26:20.712Z,14.03
2017-12-04T00:28:48.934Z,15.70
2017-12-04T00:31:16.461Z,16.93
2017-12-04T00:33:44.807Z,16.27
2017-12-04T00:36:12.271Z,17.30
2017-12-04T00:38:39.793Z,18.37
2017-12-04T00:41:07.238Z,17.30
2017-12-04T00:43:34.722Z,16.53
2017-12-04T00:46:02.194Z,16.73
2017-12-04T00:48:29.713Z,16.10
2017-12-04T00:50:57.960Z,17.20
2017-12-04T00:53:25.446Z,15.60
2017-12-04T00:55:53.721Z,18.10
2017-12-04T00:58:21.963Z,14.67
2017-12-04T01:00:49.454Z,14.23
2017-12-04T01:03:16.946Z,14.73
2017-12-04T01:05:45.374Z,13.67
2017-12-04T01:08:12.866Z,14.77
2017-12-04T01:10:40.357Z,16.70
2017-12-04T01:13:07.846Z,15.27
2017-12-04T01:15:35.550Z,16.23
2017-12-04T01:18:03.019Z,16.47
2017-12-04T01:20:31.229Z,15.87
2017-12-04T01:22:58.756Z,12.50
2017-12-04T01:25:26.217Z,15.40
2017-12-04T01:27:53.772Z,14.80
2017-12-04T01:30:21.256Z,15.67
2017-12-04T01:32:48.739Z,15.30
2017-12-04T01:35:17.001Z,15.77
2017-12-04T01:37:44.544Z,15.23
2017-12-04T01:40:12.179Z,16.67
2017-12-04T01:42:39.723Z,15.10
2017-12-04T01:45:07.215Z,14.87
2017-12-04T01:47:34.735Z,14.33
2017-12-04T01:50:03.025Z,15.10
2017-12-04T01:52:31.346Z,17.43
2017-12-04T01:54:58.822Z,17.80
2017-12-04T01:57:26.381Z,16.03
2017-12-04T01:59:53.890Z,12.60
2017-12-04T02:02:22.193Z,14.73
2017-12-04T02:04:49.712Z,17.00
2017-12-04T02:07:17.246Z,13.67
2017-12-04T02:09:44.763Z,16.37
2017-12-04T02:12:13.145Z,15.50
2017-12-04T02:14:41.421Z,16.57
2017-12-04T02:17:09.682Z,14.47
2017-12-04T02:19:37.215Z,14.20
2017-12-04T02:22:04.713Z,14.97
2017-12-04T02:24:32.257Z,15.47
2017-12-04T02:26:59.872Z,12.80
2017-12-04T02:29:28.151Z,13.53
2017-12-04T02:31:55.673Z,9.83
2017-12-04T02:34:23.166Z,14.70
2017-12-04T02:36:51.471Z,15.30
2017-12-04T02:39:18.970Z,15.47
2017-12-04T02:41:46.518Z,16.20
2017-12-04T02:44:14.041Z,15.10
2017-12-04T02:46:42.319Z,14.23
2017-12-04T02:49:10.567Z,14.30
2017-12-04T02:51:38.214Z,12.40
2017-12-04T02:54:05.795Z,14.43
2017-12-04T02:56:33.327Z,13.17
2017-12-04T02:59:00.950Z,13.60
2017-12-04T03:01:28.446Z,12.73
2017-12-04T03:03:55.973Z,14.50
2017-12-04T03:06:23.496Z,13.33
2017-12-04T03:08:51.000Z,13.63
2017-12-04T03:11:18.505Z,13.07
2017-12-04T03:13:46.024Z,15.43
2017-12-04T03:16:13.506Z,15.53
2017-12-04T03:18:41.795Z,14.23
2017-12-04T03:21:10.160Z,14.50
2017-12-04T03:23:37.663Z,13.13
2017-12-04T03:26:05.231Z,14.93
2017-12-04T03:28:32.793Z,13.03
2017-12-04T03:31:00.423Z,13.73
2017-12-04T03:33:27.899Z,14.20
2017-12-04T03:35:55.411Z,12.83
2017-12-04T03:38:22.991Z,15.30
2017-12-04T03:40:50.511Z,14.63
2017-12-04T03:43:18.130Z,14.93
2017-12-04T03:45:45.666Z,15.17
2017-12-04T03:48:13.214Z,16.47
2017-12-04T03:50:40.702Z,16.63
2017-12-04T03:53:08.245Z,14.33
2017-12-04T03:55:35.747Z,13.70
2017-12-04T03:58:03.258Z,13.87
2017-12-04T04:00:30.790Z,14.30
2017-12-04T04:02:58.286Z,13.57
2017-12-04T04:05:25.813Z,12.10
2017-12-04T04:07:54.163Z,14.50
2017-12-04T04:10:21.860Z,13.30
2017-12-04T04:12:49.394Z,12.60
2017-12-04T04:15:16.890Z,11.63
2017-12-04T04:17:45.158Z,12.53
2017-12-04T04:20:12.708Z,12.77
2017-12-04T04:22:40.290Z,11.63
2017-12-04T04:25:07.783Z,11.70
2017-12-04T04:27:35.409Z,11.80
2017-12-04T04:30:03.012Z,11.70
2017-12-04T04:32:30.571Z,12.50
2017-12-04T04:34:58.870Z,11.40
2017-12-04T04:37:26.368Z,13.33
2017-12-04T04:39:53.974Z,11.80
2017-12-04T04:42:22.259Z,12.57
2017-12-04T04:44:50.554Z,10.93
2017-12-04T04:47:18.042Z,13.50
2017-12-04T04:49:45.743Z,13.00
2017-12-04T04:52:13.299Z,12.03
2017-12-04T04:54:40.890Z,13.60
2017-12-04T04:57:09.150Z,13.00
2017-12-04T04:59:36.658Z,13.00
2017-12-04T05:02:04.307Z,12.77
2017-12-04T05:04:32.562Z,13.60
2017-12-04T05:07:00.085Z,13.87
2017-12-04T05:09:28.355Z,13.67
2017-12-04T05:11:55.924Z,14.47
2017-12-04T05:14:23.444Z,14.60
2017-12-04T05:16:51.135Z,13.53
2017-12-04T05:19:18.681Z,16.63
2017-12-04T05:21:46.967Z,14.70
2017-12-04T05:24:15.271Z,13.33
2017-12-04T05:26:42.784Z,13.20
2017-12-04T05:29:10.277Z,14.50
2017-12-04T05:31:38.682Z,15.20
2017-12-04T05:34:06.192Z,13.30
2017-12-04T05:36:33.729Z,13.30
2017-12-04T05:39:01.257Z,12.80
2017-12-04T05:41:28.813Z,12.57
2017-12-04T05:43:57.082Z,10.90
2017-12-04T05:46:24.624Z,12.93
2017-12-04T05:48:52.429Z,10.20
2017-12-04T05:51:20.691Z,11.77
2017-12-04T05:53:49.007Z,10.57
2017-12-04T05:56:16.678Z,12.47
2017-12-04T05:58:44.303Z,11.67
2017-12-04T06:01:11.832Z,13.37
2017-12-04T06:03:39.334Z,12.33
2017-12-04T06:06:06.860Z,13.37
2017-12-04T06:08:34.407Z,12.73
2017-12-04T06:11:01.922Z,13.50
2017-12-04T06:13:29.411Z,13.10
2017-12-04T06:15:57.703Z,14.97
2017-12-04T06:18:25.409Z,14.37
2017-12-04T06:20:52.927Z,12.97
2017-12-04T06:23:20.455Z,12.67
2017-12-04T06:25:48.015Z,12.80
2017-12-04T06:28:15.520Z,12.73
2017-12-04T06:30:43.058Z,13.83
2017-12-04T06:33:11.323Z,11.23
2017-12-04T06:35:38.846Z,11.20
2017-12-04T06:38:06.334Z,12.10
2017-12-04T06:40:33.874Z,13.50
2017-12-04T06:43:01.382Z,12.53
2017-12-04T06:45:28.922Z,12.27
2017-12-04T06:47:56.490Z,12.43
2017-12-04T06:50:24.002Z,14.70
2017-12-04T06:52:52.343Z,13.30
2017-12-04T06:55:19.842Z,12.90
2017-12-04T06:57:48.131Z,12.40
2017-12-04T07:00:15.622Z,14.47
2017-12-04T07:02:43.159Z,14.30
2017-12-04T07:05:10.687Z,13.57
2017-12-04T07:07:38.236Z,13.80
2017-12-04T07:10:05.733Z,12.90
2017-12-04T07:12:34.099Z,12.00
2017-12-04T07:15:01.632Z,15.17
2017-12-04T07:17:29.204Z,13.70
2017-12-04T07:19:56.747Z,12.90
2017-12-04T07:22:24.234Z,12.80
2017-12-04T07:24:51.722Z,12.70
2017-12-04T07:27:19.255Z,12.10
2017-12-04T07:29:46.790Z,12.07
2017-12-04T07:32:14.539Z,13.03
2017-12-04T07:34:42.894Z,12.70
2017-12-04T07:37:10.404Z,13.67
2017-12-04T07:39:37.908Z,12.53
2017-12-04T07:42:05.493Z,12.30
2017-12-04T07:44:33.135Z,14.37
2017-12-04T07:47:00.664Z,11.40
2017-12-04T07:49:28.203Z,12.43
2017-12-04T07:51:56.571Z,11.07
2017-12-04T07:54:24.362Z,12.70
2017-12-04T07:56:52.720Z,11.03
2017-12-04T07:59:20.223Z,11.60
2017-12-04T08:01:47.762Z,12.73
2017-12-04T08:04:16.027Z,11.10
2017-12-04T08:06:43.544Z,12.73
2017-12-04T08:09:11.054Z,11.27
2017-12-04T08:11:38.550Z,12.77
2017-12-04T08:14:06.194Z,10.20
2017-12-04T08:16:34.468Z,11.40
2017-12-04T08:19:01.965Z,11.87
2017-12-04T08:21:29.514Z,11.60
2017-12-04T08:23:57.792Z,11.60
2017-12-04T08:26:26.046Z,11.40
2017-12-04T08:28:53.670Z,11.17
2017-12-04T08:31:21.331Z,11.10
2017-12-04T08:33:48.836Z,11.27
2017-12-04T08:36:16.365Z,11.20
2017-12-04T08:38:43.854Z,11.60
2017-12-04T08:41:11.344Z,9.97
2017-12-04T08:43:38.943Z,10.97
2017-12-04T08:46:06.487Z,9.60
2017-12-04T08:48:34.751Z,9.83
2017-12-04T08:51:02.424Z,10.50
2017-12-04T08:53:30.680Z,9.87
2017-12-04T08:55:58.209Z,10.20
2017-12-04T08:58:25.722Z,10.90
2017-12-04T09:00:53.260Z,7.07
2017-12-04T09:03:20.758Z,10.00
2017-12-04T09:05:49.002Z,6.47
2017-12-04T09:08:16.582Z,9.80
2017-12-04T09:10:44.074Z,11.53
2017-12-04T09:13:12.361Z,9.80
2017-12-04T09:15:40.634Z,10.20
2017-12-04T09:18:08.890Z,9.33
2017-12-04T09:20:36.519Z,9.77
2017-12-04T09:23:04.042Z,10.97
2017-12-04T09:25:32.307Z,10.13
2017-12-04T09:27:59.816Z,9.00
2017-12-04T09:30:27.319Z,9.77
2017-12-04T09:32:54.837Z,10.87
2017-12-04T09:35:22.358Z,10.10
2017-12-04T09:37:49.842Z,10.90
2017-12-04T09:40:18.143Z,12.00
2017-12-04T09:42:45.642Z,10.30
2017-12-04T09:45:13.186Z,12.43
2017-12-04T09:47:40.682Z,10.40
2017-12-04T09:50:08.188Z,11.27
2017-12-04T09:52:35.733Z,11.23
2017-12-04T09:55:04.091Z,8.33
2017-12-04T09:57:32.398Z,8.67
2017-12-04T10:00:00.658Z,8.83
2017-12-04T10:02:28.228Z,8.40
2017-12-04T10:04:55.718Z,9.80
2017-12-04T10:07:24.003Z,9.77
2017-12-04T10:09:51.510Z,9.30
2017-12-04T10:12:19.040Z,9.30
2017-12-04T10:14:46.584Z,8.33
2017-12-04T10:17:14.146Z,9.47
2017-12-04T10:19:42.623Z,7.13
2017-12-04T10:22:10.914Z,8.87
2017-12-04T10:24:39.208Z,8.70
2017-12-04T10:27:06.703Z,7.80
2017-12-04T10:29:34.225Z,9.53
2017-12-04T10:32:02.479Z,7.73
2017-12-04T15:16:00.242Z,15.17
2017-12-04T15:18:27.778Z,11.70
2017-12-04T15:20:55.307Z,11.90
2017-12-04T15:23:22.839Z,10.13
2017-12-04T15:25:51.116Z,9.53
2017-12-04T15:28:18.662Z,10.97
2017-12-04T15:30:46.229Z,11.07
2017-12-04T15:33:13.767Z,10.87
2017-12-04T15:35:41.265Z,11.33
2017-12-04T15:38:08.843Z,10.33
2017-12-04T15:40:37.095Z,11.20
2017-12-04T15:43:04.660Z,8.80
2017-12-04T15:45:32.303Z,10.30
2017-12-04T15:47:59.805Z,9.10
2017-12-04T15:50:27.345Z,8.13
2017-12-04T15:52:55.111Z,9.00
2017-12-04T15:55:22.653Z,8.50
2017-12-04T15:57:50.144Z,7.07
2017-12-04T16:00:17.701Z,9.43
2017-12-04T16:02:45.227Z,8.00
2017-12-04T16:05:12.819Z,8.60
2017-12-04T16:07:40.329Z,8.80
2017-12-04T16:10:08.711Z,8.60
2017-12-04T16:12:37.068Z,8.93
2017-12-04T16:15:04.566Z,9.87
2017-12-04T16:17:32.842Z,10.50
2017-12-04T16:20:01.150Z,15.83
2017-12-04T16:22:28.650Z,10.13
2017-12-04T16:24:56.150Z,9.40
2017-12-04T16:27:24.433Z,8.30
2017-12-04T16:29:51.980Z,8.83
2017-12-04T16:32:19.531Z,8.90
2017-12-04T16:34:47.050Z,10.50
2017-12-04T16:37:14.560Z,9.00
2017-12-04T16:39:42.088Z,9.37
2017-12-04T16:42:09.594Z,8.47
2017-12-04T16:44:37.150Z,8.47
2017-12-04T16:47:04.692Z,8.40
2017-12-04T16:49:32.193Z,9.70
2017-12-04T16:51:59.738Z,8.83
2017-12-04T16:54:27.248Z,12.20
2017-12-04T16:56:54.962Z,11.77
2017-12-04T16:59:22.534Z,15.33
2017-12-04T17:01:50.023Z,19.87
2017-12-04T17:04:18.336Z,12.60
2017-12-04T17:06:45.907Z,15.27
2017-12-04T17:09:13.407Z,14.07
2017-12-04T17:11:40.941Z,15.53
2017-12-04T17:14:08.446Z,10.63
2017-12-04T17:16:36.016Z,9.90
2017-12-04T17:19:03.518Z,10.97
2017-12-04T17:21:31.082Z,13.47
2017-12-04T17:23:58.690Z,9.80
2017-12-04T17:26:26.178Z,8.40
2017-12-04T17:28:53.703Z,8.53
2017-12-04T17:31:21.248Z,7.70
2017-12-04T17:33:48.739Z,7.70
2017-12-04T17:36:16.290Z,8.90
2017-12-04T17:38:43.787Z,6.80
2017-12-04T17:41:11.297Z,8.33
2017-12-04T17:43:38.872Z,7.50
2017-12-04T17:46:06.374Z,7.73
2017-12-04T17:48:33.874Z,7.67
2017-12-04T17:51:01.406Z,6.50
2017-12-04T17:53:29.020Z,9.00
2017-12-04T17:55:56.520Z,10.67
2017-12-04T17:58:24.118Z,10.40
2017-12-04T18:00:51.614Z,7.90
2017-12-04T18:03:19.143Z,6.60
2017-12-04T18:05:47.412Z,7.70
2017-12-04T18:08:14.937Z,8.70
2017-12-04T18:10:42.957Z,8.27
2017-12-04T18:13:11.199Z,8.27
2017-12-04T18:15:38.733Z,7.73
2017-12-04T18:18:06.247Z,8.03
2017-12-04T18:20:33.900Z,9.50
2017-12-04T18:23:01.451Z,11.37
2017-12-04T18:25:29.104Z,9.13
2017-12-04T18:27:56.667Z,9.77
2017-12-04T18:30:24.215Z,9.67
2017-12-04T18:32:51.722Z,12.90
2017-12-04T18:35:19.241Z,10.00
2017-12-04T18:37:46.755Z,9.33
2017-12-04T18:40:14.254Z,14.10
2017-12-04T18:42:41.810Z,10.70
2017-12-04T18:45:10.095Z,11.30
2017-12-04T18:47:37.595Z,9.90
2017-12-04T18:50:05.155Z,8.00
2017-12-04T18:52:32.653Z,8.70
2017-12-04T18:55:00.158Z,9.03
2017-12-04T18:57:27.905Z,9.50
2017-12-04T18:59:55.401Z,9.23
2017-12-04T19:02:22.926Z,14.83
2017-12-04T19:04:50.506Z,14.83
2017-12-04T19:07:18.795Z,20.10
2017-12-04T19:09:47.045Z,37.83
2017-12-04T19:12:14.587Z,40.60
2017-12-04T19:14:42.703Z,23.97
2017-12-04T19:17:10.979Z,19.50
2017-12-04T19:19:38.552Z,19.37
2017-12-04T19:22:06.014Z,18.90
2017-12-04T19:24:34.407Z,10.67
2017-12-04T19:27:02.741Z,13.20
2017-12-04T19:29:30.288Z,11.53
2017-12-04T19:31:57.783Z,9.60
2017-12-04T19:34:25.284Z,9.70
2017-12-04T19:36:52.834Z,8.90
2017-12-04T19:39:21.112Z,11.53
2017-12-04T19:41:49.376Z,11.30
2017-12-04T19:44:16.918Z,9.80
2017-12-04T19:46:44.417Z,13.40
2017-12-04T19:49:12.811Z,15.57
2017-12-04T19:51:40.306Z,16.50
2017-12-04T19:54:07.806Z,14.40
2017-12-04T19:56:35.507Z,16.10
2017-12-04T19:59:03.179Z,12.30
2017-12-04T20:01:30.727Z,12.40
2017-12-04T20:03:58.999Z,10.50
2017-12-04T20:06:26.539Z,10.53
2017-12-04T20:08:54.035Z,9.43
2017-12-04T20:11:22.340Z,11.23
2017-12-04T20:13:49.839Z,11.10
2017-12-04T20:16:17.370Z,14.23
2017-12-04T20:18:44.926Z,14.37
2017-12-04T20:21:12.562Z,17.00
2017-12-04T20:23:40.842Z,17.67
2017-12-04T20:26:08.443Z,14.10
2017-12-04T20:28:35.927Z,13.53
2017-12-04T20:31:03.470Z,12.60
2017-12-04T20:33:31.017Z,12.50
2017-12-04T20:35:59.315Z,14.00
2017-12-04T20:38:26.856Z,14.17
2017-12-04T20:40:55.249Z,12.97
2017-12-04T20:43:23.554Z,11.33
2017-12-04T20:45:51.084Z,13.10
2017-12-04T20:48:19.388Z,10.13
2017-12-04T20:50:46.937Z,10.83
2017-12-04T20:53:14.445Z,10.60
2017-12-04T20:55:41.942Z,10.53
2017-12-04T20:58:09.479Z,9.63
2017-12-04T21:00:37.594Z,10.80
2017-12-04T21:03:05.202Z,9.37
2017-12-04T21:05:32.710Z,11.10
2017-12-04T21:08:00.258Z,9.80
2017-12-04T21:10:39.654Z,9.67
2017-12-04T21:13:19.065Z,10.60
2017-12-04T21:15:59.351Z,10.10
2017-12-04T21:18:26.891Z,14.10
2017-12-04T21:20:54.778Z,13.37
2017-12-04T21:23:23.047Z,10.50
2017-12-04T21:25:51.821Z,9.63
2017-12-04T21:28:20.130Z,8.63
2017-12-04T21:30:47.723Z,10.70
2017-12-04T21:33:16.934Z,8.53
2017-12-04T21:35:44.552Z,10.10
2017-12-04T21:38:12.079Z,10.73
2017-12-04T21:40:39.575Z,10.20
2017-12-04T21:43:07.096Z,9.10
2017-12-04T21:45:34.615Z,11.00
2017-12-04T21:48:02.151Z,10.63
2017-12-04T21:50:29.735Z,10.07
2017-12-04T21:52:57.230Z,9.27
2017-12-04T21:55:24.775Z,9.30
2017-12-04T21:57:52.279Z,8.67
2017-12-04T22:00:19.836Z,10.23
2017-12-04T22:02:47.435Z,27.87
2017-12-04T22:05:15.715Z,22.40
2017-12-04T22:07:44.035Z,17.07
2017-12-04T22:10:11.597Z,12.27
2017-12-04T22:12:39.139Z,11.00
2017-12-04T22:15:06.678Z,10.93
2017-12-04T22:17:34.208Z,9.60
2017-12-04T22:20:01.715Z,10.57
2017-12-04T22:22:30.026Z,10.50
2017-12-04T22:24:57.535Z,12.20
2017-12-04T22:27:25.076Z,10.80
2017-12-04T22:29:52.587Z,11.13
2017-12-04T22:32:21.015Z,11.83
2017-12-04T22:34:48.647Z,11.07
2017-12-04T22:37:16.131Z,11.00
2017-12-04T22:39:43.869Z,12.00
2017-12-04T22:42:12.155Z,11.40
2017-12-04T22:44:40.467Z,12.90
2017-12-04T22:47:07.974Z,10.43
2017-12-04T22:49:35.536Z,11.63
2017-12-04T22:52:03.036Z,10.47
2017-12-04T22:54:31.296Z,9.53
2017-12-04T22:56:58.835Z,10.33
2017-12-04T22:59:26.354Z,10.90
2017-12-04T23:01:53.985Z,11.27
2017-12-04T23:04:21.595Z,10.93
2017-12-04T23:06:49.130Z,11.03
2017-12-04T23:09:17.403Z,11.10
2017-12-04T23:11:45.798Z,10.77
2017-12-04T23:14:14.223Z,9.10
2017-12-04T23:16:41.804Z,10.90
2017-12-04T23:19:09.310Z,10.47
2017-12-04T23:21:37.626Z,11.43
2017-12-04T23:24:05.198Z,10.73
2017-12-04T23:26:32.760Z,9.50
2017-12-04T23:29:00.287Z,10.77
2017-12-04T23:31:28.565Z,9.30
2017-12-04T23:33:56.851Z,10.57
2017-12-04T23:36:24.374Z,9.23
2017-12-04T23:38:51.878Z,11.60
2017-12-04T23:41:20.190Z,11.17
2017-12-04T23:43:47.686Z,12.30
2017-12-04T23:46:15.179Z,10.63
2017-12-04T23:48:43.481Z,12.00
2017-12-04T23:51:11.007Z,9.87
2017-12-04T23:53:38.494Z,10.63
2017-12-04T23:56:05.985Z,12.13
2017-12-04T23:58:33.520Z,10.87
